Time;durP1;ratioP1;P1;durP2;ratioP2;P2;SDS_P1;SDS_P2;PMS_P1;PMS_P2;Temp;Humidity;BMP_temperature;BMP_pressure;BME280_temperature;BME280_humidity;BME280_pressure;Samples;Min_cycle;Max_cycle;Signal;HPM_P1;HPM_P2
2022/05/10 00:01:34;;;;;;;4.13;1.00;;;20.70;99.90;;;;;;5095503;28;20202;-66
2022/05/10 00:04:03;;;;;;;5.33;1.30;;;20.60;99.90;;;;;;5095574;28;20213;-66
2022/05/10 00:06:38;;;;;;;6.27;1.30;;;20.80;99.90;;;;;;5095427;28;20181;-66
2022/05/10 00:09:06;;;;;;;5.93;1.70;;;21.30;99.90;;;;;;5095537;28;20701;-67
2022/05/10 00:11:34;;;;;;;7.33;1.43;;;21.40;99.90;;;;;;5095390;28;20310;-67
2022/05/10 00:14:01;;;;;;;7.40;1.70;;;21.60;99.90;;;;;;5094879;28;20208;-67
2022/05/10 00:16:28;;;;;;;3.83;1.37;;;22.00;99.90;;;;;;5095398;28;20179;-67
2022/05/10 00:18:56;;;;;;;5.60;1.30;;;22.30;99.90;;;;;;5094519;28;20525;-67
2022/05/10 00:21:25;;;;;;;8.67;1.40;;;22.60;99.90;;;;;;5095226;28;20640;-67
2022/05/10 00:23:53;;;;;;;7.43;2.00;;;22.90;99.90;;;;;;5095020;28;20175;-66
2022/05/10 00:26:21;;;;;;;4.63;1.40;;;23.30;99.90;;;;;;5095103;28;20549;-67
2022/05/10 00:28:48;;;;;;;4.40;1.33;;;23.80;99.90;;;;;;5093649;28;20236;-66
2022/05/10 00:31:17;;;;;;;6.37;1.60;;;24.00;99.90;;;;;;5090858;28;20563;-69
2022/05/10 00:33:45;;;;;;;5.60;1.50;;;23.80;99.90;;;;;;5082491;28;20198;-68
2022/05/10 00:36:14;;;;;;;9.60;0.97;;;23.90;99.90;;;;;;5094756;28;20194;-68
2022/05/10 00:38:43;;;;;;;8.00;1.67;;;24.60;99.90;;;;;;5093518;28;20546;-69
2022/05/10 00:41:13;;;;;;;6.47;1.63;;;24.10;99.90;;;;;;5094457;28;20541;-69
2022/05/10 00:43:44;;;;;;;8.00;1.70;;;23.80;99.90;;;;;;5094476;28;20179;-67
2022/05/10 00:46:22;;;;;;;7.40;1.53;;;24.10;99.90;;;;;;5094754;28;20262;-68
2022/05/10 00:48:57;;;;;;;6.97;1.80;;;24.10;99.90;;;;;;5094670;28;20175;-68
2022/05/10 00:51:43;;;;;;;6.83;1.20;;;24.40;99.90;;;;;;5094442;28;20234;-68
2022/05/10 00:54:26;;;;;;;9.20;1.63;;;24.30;99.90;;;;;;5094573;28;20179;-67
2022/05/10 00:57:07;;;;;;;5.80;1.43;;;24.00;99.90;;;;;;5093349;28;20755;-66
2022/05/10 01:00:04;;;;;;;6.97;1.67;;;23.60;99.90;;;;;;5094396;28;20187;-67
2022/05/10 01:02:34;;;;;;;7.53;1.63;;;24.00;99.90;;;;;;5093752;28;20246;-67
2022/05/10 01:05:14;;;;;;;7.57;1.67;;;24.50;99.90;;;;;;5094511;28;20183;-67
2022/05/10 01:07:55;;;;;;;10.47;2.20;;;24.80;99.90;;;;;;5094280;28;20556;-66
2022/05/10 01:10:37;;;;;;;7.93;1.73;;;24.40;99.90;;;;;;5094369;28;20710;-66
2022/05/10 01:13:23;;;;;;;7.30;1.33;;;23.90;99.90;;;;;;5093950;28;20213;-67
2022/05/10 01:16:01;;;;;;;8.37;1.90;;;23.70;99.90;;;;;;5094313;28;20183;-67
2022/05/10 01:18:28;;;;;;;6.27;1.60;;;23.90;99.90;;;;;;5094081;28;20171;-67
2022/05/10 01:21:19;;;;;;;4.23;1.50;;;23.40;99.90;;;;;;5093645;28;20179;-66
2022/05/10 01:24:15;;;;;;;6.27;1.60;;;22.50;99.90;;;;;;5082283;28;20627;-67
2022/05/10 01:27:00;;;;;;;7.20;1.80;;;22.40;99.90;;;;;;5093998;28;20175;-65
2022/05/10 01:30:08;;;;;;;10.53;1.73;;;22.30;99.90;;;;;;5089045;28;20645;-68
2022/05/10 01:35:33;;;;;;;7.97;1.60;;;22.10;99.90;;;;;;5093916;28;20225;-68
2022/05/10 01:38:06;;;;;;;11.20;2.07;;;22.00;99.90;;;;;;5093208;28;20692;-68
2022/05/10 01:40:47;;;;;;;8.93;1.60;;;21.90;99.90;;;;;;5090018;28;20190;-69
2022/05/10 01:43:39;;;;;;;4.27;0.90;;;21.70;99.90;;;;;;5093458;28;20171;-68
2022/05/10 01:46:24;;;;;;;4.97;1.50;;;21.30;99.90;;;;;;5093688;28;20190;-68
2022/05/10 01:48:57;;;;;;;5.03;1.43;;;21.00;99.90;;;;;;5093594;28;20254;-68
2022/05/10 01:51:39;;;;;;;9.33;1.80;;;20.90;99.90;;;;;;5092666;28;20219;-69
2022/05/10 01:54:32;;;;;;;6.87;1.17;;;20.90;99.90;;;;;;5093435;28;20182;-69
2022/05/10 01:56:59;;;;;;;13.73;1.53;;;21.80;99.90;;;;;;5093269;28;20210;-70
2022/05/10 01:59:26;;;;;;;6.67;1.20;;;22.00;99.90;;;;;;5092070;28;20703;-70
2022/05/10 02:01:55;;;;;;;6.57;1.33;;;22.60;99.90;;;;;;5092870;28;20189;-70
2022/05/10 02:04:29;;;;;;;6.87;1.10;;;23.10;99.90;;;;;;5093167;28;20211;-68
2022/05/10 02:07:15;;;;;;;10.50;1.30;;;23.20;99.90;;;;;;5093055;28;20170;-68
2022/05/10 02:10:25;;;;;;;6.87;1.20;;;24.20;99.90;;;;;;5092851;28;20577;-68
2022/05/10 02:13:05;;;;;;;8.27;1.20;;;24.90;99.90;;;;;;5092275;28;20321;-69
2022/05/10 02:15:41;;;;;;;5.20;1.07;;;24.80;99.90;;;;;;5091986;28;20198;-68
2022/05/10 02:18:08;;;;;;;3.80;1.10;;;24.80;99.90;;;;;;5092967;28;20266;-69
2022/05/10 02:21:00;;;;;;;6.83;1.13;;;24.90;99.90;;;;;;5092845;28;20179;-69
2022/05/10 02:23:42;;;;;;;6.33;1.63;;;24.30;99.90;;;;;;5092849;28;20179;-69
2022/05/10 02:26:12;;;;;;;3.23;1.13;;;23.90;99.90;;;;;;5092359;28;20201;-68
2022/05/10 02:29:20;;;;;;;6.60;1.27;;;24.20;99.90;;;;;;5092943;28;20179;-69
2022/05/10 02:34:49;;;;;;;9.20;1.30;;;23.30;99.90;;;;;;5092395;28;20666;-68
2022/05/10 02:37:18;;;;;;;7.07;1.90;;;22.80;99.90;;;;;;5092575;28;20187;-68
2022/05/10 02:39:46;;;;;;;11.73;1.43;;;22.30;99.90;;;;;;5092579;28;20183;-69
2022/05/10 02:42:16;;;;;;;5.50;1.43;;;22.00;99.90;;;;;;5092530;28;20167;-69
2022/05/10 02:44:44;;;;;;;11.90;1.83;;;22.00;99.90;;;;;;5092581;28;20187;-70
2022/05/10 02:47:12;;;;;;;5.40;1.23;;;21.90;99.90;;;;;;5089280;28;20405;-69
2022/05/10 02:49:40;;;;;;;7.60;1.47;;;22.00;99.90;;;;;;5082301;28;20729;-69
2022/05/10 02:52:09;;;;;;;8.20;1.70;;;21.90;99.90;;;;;;5082324;28;20227;-70
2022/05/10 02:54:36;;;;;;;5.97;1.40;;;21.90;99.90;;;;;;5088021;28;20197;-69
2022/05/10 02:57:05;;;;;;;10.03;1.43;;;22.40;99.90;;;;;;5092150;28;20186;-69
2022/05/10 02:59:36;;;;;;;5.83;1.53;;;22.70;99.90;;;;;;5092275;28;20261;-68
2022/05/10 03:02:27;;;;;;;6.40;1.37;;;22.60;99.90;;;;;;5091884;28;20187;-69
2022/05/10 03:04:58;;;;;;;17.77;2.23;;;22.10;99.90;;;;;;5092306;28;20189;-68
2022/05/10 03:07:30;;;;;;;6.07;1.87;;;21.90;99.90;;;;;;5091799;28;20203;-68
2022/05/10 03:09:58;;;;;;;10.03;2.00;;;21.70;99.90;;;;;;5092107;28;20198;-67
2022/05/10 03:12:25;;;;;;;11.63;1.60;;;21.60;99.90;;;;;;5091879;28;20222;-69
2022/05/10 03:14:55;;;;;;;9.27;1.80;;;21.50;99.90;;;;;;5092232;28;20181;-69
2022/05/10 03:17:23;;;;;;;9.40;1.90;;;21.30;99.90;;;;;;5091593;28;20274;-69
2022/05/10 03:19:50;;;;;;;7.83;1.80;;;21.30;99.90;;;;;;5092221;28;20169;-69
2022/05/10 03:22:18;;;;;;;5.73;1.10;;;21.30;99.90;;;;;;5091800;28;20174;-69
2022/05/10 03:24:46;;;;;;;7.57;1.57;;;21.20;99.90;;;;;;5091837;28;20187;-68
2022/05/10 03:27:16;;;;;;;6.30;1.30;;;21.20;99.90;;;;;;5095258;28;20186;-69
2022/05/10 03:29:44;;;;;;;9.87;1.90;;;21.20;99.90;;;;;;5096093;28;20187;-69
2022/05/10 03:32:12;;;;;;;5.00;1.20;;;21.20;99.90;;;;;;5096084;28;20268;-69
2022/05/10 03:34:55;;;;;;;8.43;1.23;;;21.20;99.90;;;;;;5096293;28;20784;-69
2022/05/10 03:37:24;;;;;;;6.33;1.20;;;21.10;99.90;;;;;;5095690;28;20218;-68
2022/05/10 03:39:51;;;;;;;9.93;1.30;;;21.20;99.90;;;;;;5096005;28;20184;-68
2022/05/10 03:42:20;;;;;;;8.60;1.73;;;21.10;99.90;;;;;;5095578;28;20195;-68
2022/05/10 03:44:50;;;;;;;6.73;1.20;;;21.20;99.90;;;;;;5094116;28;20175;-68
2022/05/10 03:47:19;;;;;;;11.13;1.57;;;21.20;99.90;;;;;;5095095;28;20177;-68
2022/05/10 03:49:47;;;;;;;9.40;1.97;;;21.20;99.90;;;;;;5095602;28;20182;-68
2022/05/10 03:52:15;;;;;;;8.73;1.30;;;21.10;99.90;;;;;;5095584;28;20206;-68
2022/05/10 03:54:44;;;;;;;11.27;1.83;;;21.00;99.90;;;;;;5095652;28;21329;-67
2022/05/10 03:57:13;;;;;;;8.83;1.70;;;21.10;99.90;;;;;;5095386;28;20653;-68
2022/05/10 03:59:44;;;;;;;8.70;1.10;;;21.10;99.90;;;;;;5094139;28;20190;-68
2022/05/10 04:02:13;;;;;;;7.07;1.43;;;21.20;99.90;;;;;;5096183;28;20862;-66
2022/05/10 04:04:42;;;;;;;11.50;1.60;;;21.70;99.90;;;;;;5095327;28;20733;-67
2022/05/10 04:07:10;;;;;;;9.10;1.87;;;22.30;99.90;;;;;;5095469;28;20187;-67
2022/05/10 04:09:38;;;;;;;5.80;1.10;;;22.70;99.90;;;;;;5095379;28;20216;-67
2022/05/10 04:12:06;;;;;;;5.97;1.10;;;22.20;99.90;;;;;;5095281;28;20272;-67
2022/05/10 04:14:34;;;;;;;15.37;2.07;;;21.80;99.90;;;;;;5095291;28;20230;-68
2022/05/10 04:17:01;;;;;;;8.33;1.70;;;21.60;99.90;;;;;;5094752;28;20185;-67
2022/05/10 04:19:29;;;;;;;4.40;1.20;;;21.60;99.90;;;;;;5095349;28;20204;-67
2022/05/10 04:21:57;;;;;;;7.40;1.40;;;21.50;99.90;;;;;;5095118;28;20185;-68
2022/05/10 04:24:24;;;;;;;9.57;1.70;;;21.90;99.90;;;;;;5095237;28;20172;-67
2022/05/10 04:26:52;;;;;;;8.17;1.20;;;22.00;99.90;;;;;;5095198;28;20189;-69
2022/05/10 04:29:20;;;;;;;5.80;1.10;;;22.60;99.90;;;;;;5095074;28;20176;-67
2022/05/10 04:31:48;;;;;;;12.23;1.53;;;22.20;99.90;;;;;;5094988;28;20252;-67
2022/05/10 04:34:15;;;;;;;10.43;1.27;;;21.80;99.90;;;;;;5094983;28;20195;-68
2022/05/10 04:36:44;;;;;;;8.23;1.87;;;21.50;99.90;;;;;;5093368;28;20187;-67
2022/05/10 04:39:12;;;;;;;12.70;1.30;;;21.10;99.90;;;;;;5092491;28;20547;-67
2022/05/10 04:41:46;;;;;;;9.17;1.20;;;20.70;99.90;;;;;;5094747;28;20303;-67
2022/05/10 04:44:15;;;;;;;7.90;1.10;;;20.60;99.90;;;;;;5094651;28;20186;-67
2022/05/10 04:46:43;;;;;;;4.43;1.07;;;20.50;99.90;;;;;;5094752;28;20544;-67
2022/05/10 04:49:13;;;;;;;9.63;1.57;;;20.30;99.90;;;;;;5094345;28;20183;-67
2022/05/10 04:51:41;;;;;;;5.17;1.20;;;20.30;99.90;;;;;;5094511;28;20225;-67
2022/05/10 04:54:09;;;;;;;8.80;1.57;;;20.80;99.90;;;;;;5094259;28;20613;-68
2022/05/10 04:56:37;;;;;;;6.33;1.20;;;21.30;99.90;;;;;;5092744;28;20218;-69
2022/05/10 04:59:05;;;;;;;10.77;2.00;;;21.20;99.90;;;;;;5094318;28;20179;-69
2022/05/10 05:01:33;;;;;;;7.03;1.27;;;21.90;99.90;;;;;;5094193;28;20642;-69
2022/05/10 05:04:01;;;;;;;5.73;1.10;;;22.70;99.90;;;;;;5094204;28;20259;-68
2022/05/10 05:06:30;;;;;;;12.30;1.80;;;22.50;99.90;;;;;;5094124;28;20180;-70
2022/05/10 05:08:58;;;;;;;11.83;1.50;;;22.80;99.90;;;;;;5093972;28;20549;-68
2022/05/10 05:11:26;;;;;;;6.03;1.40;;;23.30;99.90;;;;;;5094065;28;20679;-68
2022/05/10 05:13:54;;;;;;;5.23;1.00;;;22.60;99.90;;;;;;5094127;28;20183;-68
2022/05/10 05:16:22;;;;;;;5.93;1.17;;;21.70;99.90;;;;;;5092804;28;20535;-69
2022/05/10 05:18:50;;;;;;;8.77;1.40;;;21.20;99.90;;;;;;5093995;28;20178;-68
2022/05/10 05:21:18;;;;;;;10.43;1.30;;;20.80;99.90;;;;;;5093788;28;20196;-68
2022/05/10 05:23:46;;;;;;;9.97;1.47;;;20.60;99.90;;;;;;5093892;28;20271;-69
2022/05/10 05:26:14;;;;;;;3.30;0.87;;;20.50;99.90;;;;;;5094026;28;20251;-69
2022/05/10 05:28:42;;;;;;;6.87;1.70;;;20.60;99.90;;;;;;5094015;28;20232;-69
2022/05/10 05:31:12;;;;;;;12.93;1.43;;;20.60;99.90;;;;;;5093602;28;20202;-67
2022/05/10 05:33:40;;;;;;;4.63;1.10;;;20.60;99.90;;;;;;5093701;28;20209;-68
2022/05/10 05:36:08;;;;;;;6.43;1.03;;;20.50;99.90;;;;;;5093779;28;20199;-68
2022/05/10 05:38:35;;;;;;;5.67;1.13;;;20.40;99.90;;;;;;5091014;28;20193;-67
2022/05/10 05:41:03;;;;;;;6.03;0.97;;;20.40;99.90;;;;;;5081493;28;20263;-68
2022/05/10 05:43:31;;;;;;;7.83;1.57;;;20.30;99.90;;;;;;5093193;28;20215;-67
2022/05/10 05:45:58;;;;;;;5.03;1.10;;;20.30;99.90;;;;;;5091935;28;20189;-68
2022/05/10 05:48:26;;;;;;;5.60;1.33;;;20.20;99.90;;;;;;5093023;28;20195;-69
2022/05/10 05:50:54;;;;;;;5.07;1.20;;;20.10;99.90;;;;;;5093080;28;20194;-69
2022/05/10 05:53:22;;;;;;;8.60;0.90;;;20.20;99.90;;;;;;5092015;28;20642;-68
2022/05/10 05:55:49;;;;;;;12.20;1.30;;;20.20;99.90;;;;;;5094326;28;20348;-68
2022/05/10 05:58:17;;;;;;;6.13;1.20;;;20.40;99.90;;;;;;5102686;28;20267;-68
2022/05/10 06:00:45;;;;;;;6.53;0.87;;;20.60;99.90;;;;;;5093263;28;20224;-68
2022/05/10 06:03:13;;;;;;;4.63;1.20;;;20.40;99.90;;;;;;5093096;28;20718;-68
2022/05/10 06:05:41;;;;;;;8.70;1.37;;;20.20;99.90;;;;;;5092837;28;20310;-66
2022/05/10 06:08:09;;;;;;;4.77;1.10;;;20.10;99.90;;;;;;5092962;28;20652;-66
2022/05/10 06:10:37;;;;;;;7.97;1.10;;;20.00;99.90;;;;;;5093082;28;20197;-66
2022/05/10 06:13:05;;;;;;;4.73;1.00;;;20.00;99.90;;;;;;5092584;28;20219;-67
2022/05/10 06:15:33;;;;;;;6.57;2.13;;;19.90;99.90;;;;;;5092717;28;20274;-68
2022/05/10 06:18:04;;;;;;;5.27;1.17;;;19.90;99.90;;;;;;5092947;28;20180;-67
2022/05/10 06:20:31;;;;;;;5.60;1.10;;;19.90;99.90;;;;;;5093366;28;20507;-68
2022/05/10 06:22:59;;;;;;;5.00;1.20;;;19.80;99.90;;;;;;5092430;28;20304;-68
2022/05/10 06:25:28;;;;;;;3.93;1.40;;;19.60;99.90;;;;;;5092475;28;20189;-69
2022/05/10 06:27:56;;;;;;;7.87;1.50;;;19.50;99.90;;;;;;5092757;28;20175;-68
2022/05/10 06:30:25;;;;;;;6.17;1.33;;;19.40;99.90;;;;;;5092753;28;20278;-66
2022/05/10 06:32:59;;;;;;;4.57;1.00;;;19.40;99.90;;;;;;5092640;28;20212;-67
2022/05/10 06:35:28;;;;;;;6.13;1.30;;;19.40;99.90;;;;;;5072575;28;20176;-67
2022/05/10 06:40:43;;;;;;;5.93;1.10;;;19.30;99.90;;;;;;5092658;28;20228;-67
2022/05/10 06:43:11;;;;;;;2.33;1.00;;;19.20;99.90;;;;;;5092191;28;20202;-68
2022/05/10 06:45:41;;;;;;;6.30;1.30;;;19.20;99.90;;;;;;5092238;28;20187;-68
2022/05/10 06:48:09;;;;;;;8.57;1.37;;;19.20;99.90;;;;;;5073264;28;20588;-68
2022/05/10 06:50:38;;;;;;;7.43;1.20;;;19.20;99.90;;;;;;5092172;28;20270;-67
2022/05/10 06:53:07;;;;;;;3.63;1.07;;;19.10;99.90;;;;;;5091802;28;20595;-66
2022/05/10 06:55:36;;;;;;;5.37;1.40;;;19.00;99.90;;;;;;5092288;28;20230;-68
2022/05/10 06:58:04;;;;;;;8.03;1.10;;;18.90;99.90;;;;;;5091702;28;20704;-68
2022/05/10 07:00:37;;;;;;;10.17;1.23;;;18.90;99.90;;;;;;5091564;28;20179;-67
2022/05/10 07:03:06;;;;;;;4.83;1.40;;;18.70;99.90;;;;;;5090467;28;20188;-68
2022/05/10 07:05:34;;;;;;;6.97;1.33;;;18.70;99.90;;;;;;5091935;28;20187;-68
2022/05/10 07:08:02;;;;;;;3.57;1.00;;;18.60;99.90;;;;;;5092049;28;20399;-68
2022/05/10 07:10:31;;;;;;;7.97;1.30;;;18.60;99.90;;;;;;5101595;28;20182;-67
2022/05/10 07:12:59;;;;;;;7.37;1.10;;;18.50;99.90;;;;;;5093617;28;20679;-68
2022/05/10 07:15:27;;;;;;;6.20;1.33;;;18.50;99.90;;;;;;5090828;28;20640;-67
2022/05/10 07:17:54;;;;;;;6.03;1.10;;;18.40;99.90;;;;;;5092008;28;20661;-67
2022/05/10 07:20:23;;;;;;;11.17;1.63;;;18.40;99.90;;;;;;5092214;28;20183;-68
2022/05/10 07:22:51;;;;;;;9.77;1.43;;;18.40;99.90;;;;;;5092096;28;20228;-68
2022/05/10 07:25:24;;;;;;;4.87;1.10;;;18.30;99.90;;;;;;5092232;28;20171;-68
2022/05/10 07:27:52;;;;;;;7.43;1.40;;;18.20;99.90;;;;;;5091835;28;20183;-67
2022/05/10 07:30:20;;;;;;;11.87;1.60;;;18.20;99.90;;;;;;5092039;28;20261;-68
2022/05/10 07:32:48;;;;;;;7.77;1.40;;;18.20;99.90;;;;;;5091846;28;20224;-68
2022/05/10 07:35:17;;;;;;;4.30;0.97;;;18.10;99.90;;;;;;5092104;28;20273;-68
2022/05/10 07:37:45;;;;;;;3.60;1.30;;;18.00;99.90;;;;;;5092171;28;20171;-69
2022/05/10 07:40:13;;;;;;;4.60;1.37;;;17.90;99.90;;;;;;5090784;28;20186;-69
2022/05/10 07:42:42;;;;;;;4.37;1.10;;;17.80;99.90;;;;;;5091533;28;20180;-67
2022/05/10 07:45:11;;;;;;;7.27;1.40;;;17.70;99.90;;;;;;5091621;28;20176;-69
2022/05/10 07:47:43;;;;;;;5.67;1.20;;;17.60;99.90;;;;;;5091672;28;20269;-69
2022/05/10 07:50:11;;;;;;;10.90;1.37;;;17.50;99.90;;;;;;5091940;28;20194;-68
2022/05/10 07:52:40;;;;;;;9.03;1.60;;;17.40;99.90;;;;;;5091531;28;20244;-67
2022/05/10 07:55:12;;;;;;;8.63;1.70;;;17.30;99.90;;;;;;5091149;28;20230;-68
2022/05/10 07:57:42;;;;;;;4.70;1.40;;;17.10;99.90;;;;;;5088984;28;20176;-69
2022/05/10 08:00:13;;;;;;;4.40;1.30;;;17.00;99.90;;;;;;5091726;28;20179;-68
2022/05/10 08:02:45;;;;;;;5.97;1.23;;;16.90;99.90;;;;;;5091828;28;20735;-68
2022/05/10 08:05:22;;;;;;;6.47;1.57;;;16.80;99.90;;;;;;5091570;28;20191;-67
2022/05/10 08:07:50;;;;;;;5.53;1.37;;;16.70;99.90;;;;;;5091776;28;20694;-68
2022/05/10 08:10:19;;;;;;;3.80;1.10;;;16.60;99.90;;;;;;5091806;28;20179;-67
2022/05/10 08:12:47;;;;;;;7.73;1.60;;;16.50;99.90;;;;;;5092431;28;20707;-68
2022/05/10 08:15:15;;;;;;;9.47;1.47;;;16.50;99.90;;;;;;5095686;28;20195;-67
2022/05/10 08:17:43;;;;;;;4.13;1.47;;;16.40;99.90;;;;;;5095467;28;20164;-67
2022/05/10 08:20:11;;;;;;;4.30;1.57;;;16.40;99.90;;;;;;5095321;28;20205;-67
2022/05/10 08:22:39;;;;;;;7.07;1.67;;;16.30;99.90;;;;;;5095182;28;20221;-68
2022/05/10 08:25:07;;;;;;;7.13;2.00;;;16.20;99.90;;;;;;5094358;28;20187;-67
2022/05/10 08:27:34;;;;;;;5.17;1.40;;;16.10;99.90;;;;;;5094683;28;20183;-67
2022/05/10 08:30:03;;;;;;;6.33;2.07;;;16.00;99.90;;;;;;5092848;28;20187;-70
2022/05/10 08:32:31;;;;;;;8.67;2.70;;;16.10;99.90;;;;;;5093584;28;20209;-69
2022/05/10 08:34:58;;;;;;;6.37;2.30;;;16.00;99.90;;;;;;5094394;28;20195;-67
2022/05/10 08:37:26;;;;;;;5.07;2.17;;;16.00;99.90;;;;;;5094924;28;20183;-68
2022/05/10 08:39:54;;;;;;;7.93;2.47;;;15.90;99.90;;;;;;5094454;28;20176;-67
2022/05/10 08:42:29;;;;;;;6.60;2.10;;;15.80;99.90;;;;;;5094136;28;20212;-68
2022/05/10 08:45:08;;;;;;;8.90;2.27;;;15.80;99.90;;;;;;5091037;28;20179;-67
2022/05/10 08:47:37;;;;;;;9.73;2.03;;;15.70;99.90;;;;;;5094295;28;20800;-68
2022/05/10 08:50:11;;;;;;;9.27;1.80;;;15.60;99.90;;;;;;5094430;28;20545;-67
2022/05/10 08:52:46;;;;;;;5.80;1.77;;;15.50;99.90;;;;;;5094159;28;20737;-68
2022/05/10 08:55:21;;;;;;;6.60;2.40;;;15.40;99.90;;;;;;5093675;28;20251;-68
2022/05/10 08:58:06;;;;;;;8.13;2.17;;;15.30;99.90;;;;;;5093894;28;20189;-68
2022/05/10 09:00:40;;;;;;;7.97;1.87;;;15.20;99.90;;;;;;5093612;28;20179;-68
2022/05/10 09:03:31;;;;;;;8.63;1.80;;;15.10;99.90;;;;;;5094087;28;20178;-68
2022/05/10 09:06:07;;;;;;;6.50;2.20;;;15.00;99.90;;;;;;5088622;28;20264;-68
2022/05/10 09:08:46;;;;;;;9.23;2.10;;;15.00;99.90;;;;;;5094325;28;20645;-67
2022/05/10 09:11:16;;;;;;;4.00;1.50;;;14.90;99.90;;;;;;5092865;28;20294;-68
2022/05/10 09:13:45;;;;;;;9.10;2.47;;;14.80;99.90;;;;;;5093789;28;20675;-67
2022/05/10 09:16:14;;;;;;;11.57;2.30;;;14.70;99.90;;;;;;5093829;28;20239;-67
2022/05/10 09:18:56;;;;;;;5.27;2.23;;;14.70;99.90;;;;;;5093659;28;20171;-67
2022/05/10 09:21:28;;;;;;;5.20;2.57;;;14.60;99.90;;;;;;5094196;28;20541;-67
2022/05/10 09:24:17;;;;;;;9.33;2.53;;;14.60;99.90;;;;;;5093601;28;20175;-67
2022/05/10 09:26:51;;;;;;;5.67;2.50;;;14.60;99.90;;;;;;5092411;28;20591;-68
2022/05/10 09:29:44;;;;;;;9.70;2.37;;;14.60;99.90;;;;;;5092383;28;20214;-67
2022/05/10 09:35:07;;;;;;;6.43;2.53;;;14.40;99.90;;;;;;5093597;28;20251;-68
2022/05/10 09:37:57;;;;;;;7.53;2.30;;;14.40;99.90;;;;;;5093692;28;20594;-68
2022/05/10 09:40:32;;;;;;;4.60;2.43;;;14.30;99.90;;;;;;5085818;28;20183;-69
2022/05/10 09:43:22;;;;;;;6.77;2.70;;;14.20;99.90;;;;;;5093757;28;20175;-68
2022/05/10 09:46:13;;;;;;;7.20;3.17;;;14.20;99.90;;;;;;5093631;28;20182;-68
2022/05/10 09:48:43;;;;;;;6.67;2.73;;;14.20;99.90;;;;;;5092622;28;20538;-68
2022/05/10 09:51:44;;;;;;;6.40;2.97;;;14.20;99.90;;;;;;5093521;28;20647;-68
2022/05/10 09:54:22;;;;;;;6.50;2.87;;;14.10;99.90;;;;;;5093736;28;20193;-68
2022/05/10 09:56:58;;;;;;;14.53;4.07;;;14.10;99.90;;;;;;5093327;28;20221;-68
2022/05/10 09:59:30;;;;;;;5.27;2.30;;;14.00;99.90;;;;;;5093474;28;20188;-68
2022/05/10 10:02:01;;;;;;;8.57;2.90;;;14.00;99.90;;;;;;5091722;28;20225;-69
2022/05/10 10:04:41;;;;;;;6.27;2.83;;;14.00;99.90;;;;;;5090023;28;20175;-69
2022/05/10 10:07:17;;;;;;;5.07;2.63;;;13.90;99.90;;;;;;5093287;28;20190;-68
2022/05/10 10:09:48;;;;;;;7.27;2.80;;;13.90;99.90;;;;;;5093359;28;20683;-68
2022/05/10 10:12:40;;;;;;;10.37;3.20;;;13.80;99.90;;;;;;5071726;28;20615;-67
2022/05/10 10:15:33;;;;;;;9.80;2.80;;;13.80;99.90;;;;;;5086071;28;20186;-68
2022/05/10 10:18:04;;;;;;;8.17;2.53;;;13.70;99.90;;;;;;5092959;28;20229;-69
2022/05/10 10:20:35;;;;;;;10.17;2.60;;;13.70;99.90;;;;;;5091695;28;20178;-68
2022/05/10 10:23:11;;;;;;;6.07;2.50;;;13.70;99.90;;;;;;5093061;28;20197;-67
2022/05/10 10:25:45;;;;;;;10.90;3.87;;;13.60;99.90;;;;;;5093016;28;20590;-68
2022/05/10 10:28:29;;;;;;;10.87;4.20;;;13.70;99.90;;;;;;5092313;28;20628;-68
2022/05/10 10:31:02;;;;;;;7.50;3.67;;;13.70;99.90;;;;;;5080731;28;20204;-68
2022/05/10 10:33:30;;;;;;;7.93;3.70;;;13.70;99.90;;;;;;5092651;28;20198;-68
2022/05/10 10:36:16;;;;;;;7.20;3.20;;;13.70;99.90;;;;;;5091584;28;20216;-69
2022/05/10 10:38:59;;;;;;;8.50;3.83;;;13.70;99.90;;;;;;5091855;28;20265;-67
2022/05/10 10:41:53;;;;;;;13.10;3.83;;;13.60;99.90;;;;;;5092398;28;20174;-68
2022/05/10 10:44:29;;;;;;;6.57;3.50;;;13.50;99.90;;;;;;5080213;28;20182;-69
2022/05/10 10:47:18;;;;;;;7.97;3.10;;;13.50;99.90;;;;;;5093176;28;20190;-69
2022/05/10 10:50:04;;;;;;;6.40;3.03;;;13.40;99.90;;;;;;5093668;28;20603;-69
2022/05/10 10:52:32;;;;;;;8.33;3.43;;;13.30;99.90;;;;;;5093743;28;20220;-69
2022/05/10 10:55:01;;;;;;;11.67;4.10;;;13.30;99.90;;;;;;5093199;28;20361;-69
2022/05/10 10:57:49;;;;;;;10.63;3.63;;;13.30;99.90;;;;;;5093721;28;20183;-68
2022/05/10 11:00:22;;;;;;;12.33;4.30;;;13.20;99.90;;;;;;5093804;28;20525;-68
2022/05/10 11:03:38;;;;;;;11.93;3.70;;;13.20;99.90;;;;;;5092047;28;20178;-70
2022/05/10 11:06:28;;;;;;;8.97;3.97;;;13.20;99.90;;;;;;5071210;28;20264;-68
2022/05/10 11:09:13;;;;;;;8.73;3.37;;;13.30;99.90;;;;;;5071399;28;20266;-70
2022/05/10 11:12:03;;;;;;;10.43;4.77;;;13.20;99.90;;;;;;5085572;28;20256;-68
2022/05/10 11:14:49;;;;;;;13.20;5.00;;;13.10;99.90;;;;;;5093759;28;20232;-68
2022/05/10 11:17:41;;;;;;;11.47;5.50;;;13.10;99.90;;;;;;5093409;28;20539;-67
2022/05/10 11:20:47;;;;;;;11.80;5.57;;;13.00;99.90;;;;;;5092215;28;20183;-69
2022/05/10 11:23:48;;;;;;;15.87;6.77;;;13.10;99.90;;;;;;5093586;28;20200;-68
2022/05/10 11:26:36;;;;;;;17.57;7.10;;;13.00;99.90;;;;;;5093716;28;20174;-69
2022/05/10 11:29:16;;;;;;;19.53;7.37;;;13.00;99.90;;;;;;5093944;28;20174;-67
2022/05/10 11:32:12;;;;;;;14.13;5.67;;;13.10;99.90;;;;;;5093617;28;20202;-68
2022/05/10 11:34:53;;;;;;;11.33;5.57;;;13.10;99.90;;;;;;5089759;28;20266;-67
2022/05/10 11:37:29;;;;;;;12.83;4.80;;;13.10;99.90;;;;;;5093573;28;20203;-68
2022/05/10 11:40:15;;;;;;;17.03;5.00;;;13.20;99.90;;;;;;5093523;28;20171;-68
2022/05/10 11:42:55;;;;;;;14.80;4.40;;;13.20;99.90;;;;;;5093118;28;20178;-68
2022/05/10 11:45:35;;;;;;;5.53;3.73;;;13.20;99.90;;;;;;5093434;28;20211;-68
2022/05/10 11:48:24;;;;;;;8.77;3.80;;;13.20;99.90;;;;;;5095059;28;20183;-68
2022/05/10 11:51:44;;;;;;;11.17;4.67;;;13.20;99.90;;;;;;5096873;28;20217;-68
2022/05/10 11:54:31;;;;;;;7.23;3.57;;;13.20;99.90;;;;;;5047138;28;20201;-67
2022/05/10 11:57:03;;;;;;;10.30;4.30;;;13.20;99.90;;;;;;5096871;28;20643;-68
2022/05/10 11:59:34;;;;;;;10.50;4.57;;;13.20;99.90;;;;;;5085912;28;20178;-67
2022/05/10 12:02:02;;;;;;;10.33;4.30;;;13.10;99.90;;;;;;5096177;28;20632;-69
2022/05/10 12:04:44;;;;;;;12.03;4.23;;;13.10;99.90;;;;;;5095588;28;20194;-68
2022/05/10 12:07:20;;;;;;;10.00;4.53;;;13.10;99.90;;;;;;5096339;28;20659;-68
2022/05/10 12:09:56;;;;;;;12.77;4.60;;;13.10;99.90;;;;;;5095878;28;20275;-68
2022/05/10 12:12:44;;;;;;;14.17;4.13;;;13.10;99.90;;;;;;5096567;28;20582;-68
2022/05/10 12:21:40;;;;;;;11.93;3.93;;;13.40;99.90;;;;;;5096510;28;20205;-68
2022/05/10 12:24:27;;;;;;;9.50;4.23;;;13.50;99.90;;;;;;5096445;28;20210;-67
2022/05/10 12:27:19;;;;;;;9.23;3.57;;;13.60;99.90;;;;;;5082627;28;20644;-68
2022/05/10 12:29:48;;;;;;;8.30;3.50;;;13.70;99.90;;;;;;5088355;28;20202;-68
2022/05/10 12:32:36;;;;;;;9.43;3.20;;;13.80;99.90;;;;;;5096192;28;20270;-67
2022/05/10 12:35:06;;;;;;;8.90;3.97;;;13.80;99.90;;;;;;5096450;28;20266;-68
2022/05/10 12:37:42;;;;;;;7.10;3.30;;;13.90;99.90;;;;;;5096190;28;20218;-68
2022/05/10 12:40:12;;;;;;;7.37;3.37;;;13.90;99.90;;;;;;5096027;28;20211;-67
2022/05/10 12:43:02;;;;;;;7.77;3.60;;;14.00;99.90;;;;;;5095672;28;20184;-67
2022/05/10 12:45:39;;;;;;;9.20;3.03;;;14.00;99.90;;;;;;5096170;28;20694;-68
2022/05/10 12:48:39;;;;;;;12.17;3.87;;;14.00;99.90;;;;;;5094826;28;20614;-68
2022/05/10 12:51:25;;;;;;;4.17;3.03;;;14.10;99.90;;;;;;5077413;28;20647;-68
2022/05/10 12:54:00;;;;;;;6.80;2.80;;;14.10;99.90;;;;;;5096020;28;20179;-68
2022/05/10 12:56:52;;;;;;;8.37;3.00;;;14.20;99.90;;;;;;5095382;28;20696;-68
2022/05/10 12:59:40;;;;;;;8.47;2.90;;;14.20;99.90;;;;;;5091966;28;20198;-68
2022/05/10 13:02:13;;;;;;;6.03;2.90;;;14.20;99.90;;;;;;5093289;28;20176;-67
2022/05/10 13:04:50;;;;;;;9.33;3.00;;;14.20;99.90;;;;;;5095469;28;20270;-68
2022/05/10 13:07:39;;;;;;;12.30;3.23;;;14.20;99.90;;;;;;5094655;28;20171;-67
2022/05/10 13:10:20;;;;;;;10.40;3.00;;;14.20;99.90;;;;;;5092087;28;20266;-67
2022/05/10 13:13:11;;;;;;;6.77;3.37;;;14.30;99.90;;;;;;5095234;28;20241;-68
2022/05/10 13:15:44;;;;;;;6.53;2.83;;;14.30;99.90;;;;;;5091866;28;20274;-66
2022/05/10 13:18:22;;;;;;;7.07;2.80;;;14.30;99.90;;;;;;5095641;28;20185;-67
2022/05/10 13:20:51;;;;;;;8.93;3.47;;;14.40;99.90;;;;;;5095399;28;20644;-67
2022/05/10 13:23:20;;;;;;;4.87;3.27;;;14.30;99.90;;;;;;5093672;28;20179;-67
2022/05/10 13:25:49;;;;;;;7.27;2.97;;;14.40;99.90;;;;;;5094755;28;20185;-66
2022/05/10 13:28:21;;;;;;;8.27;3.60;;;14.50;99.90;;;;;;5090021;28;20183;-66
2022/05/10 13:30:56;;;;;;;8.70;2.77;;;14.40;99.90;;;;;;5095081;28;20171;-66
2022/05/10 13:33:32;;;;;;;7.00;2.80;;;14.50;99.90;;;;;;5095041;28;20210;-66
2022/05/10 13:36:03;;;;;;;8.13;2.50;;;14.50;99.90;;;;;;5094905;28;20180;-66
2022/05/10 13:38:53;;;;;;;8.47;3.50;;;14.50;99.90;;;;;;5093730;28;20191;-67
2022/05/10 13:41:33;;;;;;;5.73;3.07;;;14.50;99.90;;;;;;5093622;28;20179;-68